Time;durP1;ratioP1;P1;durP2;ratioP2;P2;SDS_P1;SDS_P2;PMS_P1;PMS_P2;Temp;Humidity;BMP_temperature;BMP_pressure;BME280_temperature;BME280_humidity;BME280_pressure;Samples;Min_cycle;Max_cycle;Signal;HPM_P1;HPM_P2
2023/09/22 00:02:19;;;;;;;22.80;6.40;;;;;;;16.98;100.00;97919.77;137182;1273;22569;-84
2023/09/22 00:05:20;;;;;;;23.30;19.70;;;;;;;18.14;100.00;97916.44;137514;1273;22546;-83
2023/09/22 00:08:21;;;;;;;7.70;4.50;;;;;;;18.81;100.00;97917.70;137321;1273;22612;-82
2023/09/22 00:11:24;;;;;;;9.00;4.60;;;;;;;18.65;100.00;97916.30;137272;1273;22379;-83
2023/09/22 00:14:26;;;;;;;7.20;4.20;;;;;;;18.08;100.00;97915.23;137265;1269;22539;-85
2023/09/22 00:17:27;;;;;;;6.40;4.10;;;;;;;17.64;100.00;97910.97;137575;1273;22188;-83
2023/09/22 00:20:30;;;;;;;52.30;6.60;;;;;;;17.34;100.00;97911.00;137170;1273;22177;-83
2023/09/22 00:23:31;;;;;;;8.90;4.50;;;;;;;17.12;100.00;97910.92;137137;1273;22497;-84
2023/09/22 00:26:32;;;;;;;8.60;4.20;;;;;;;16.94;100.00;97909.53;137625;1272;22405;-83
2023/09/22 00:29:33;;;;;;;6.30;4.40;;;;;;;16.80;100.00;97899.55;137310;1273;22435;-83
2023/09/22 00:32:34;;;;;;;6.70;4.40;;;;;;;16.69;100.00;97903.73;137435;1272;22234;-83
2023/09/22 00:35:35;;;;;;;5.00;4.30;;;;;;;16.60;100.00;97901.85;137653;1272;22256;-84
2023/09/22 00:38:36;;;;;;;7.50;4.20;;;;;;;16.51;100.00;97904.36;137355;1272;22152;-83
2023/09/22 00:41:38;;;;;;;7.70;4.20;;;;;;;16.45;100.00;97898.89;137323;1272;22503;-83
2023/09/22 00:44:39;;;;;;;6.30;4.20;;;;;;;16.39;100.00;97896.05;137541;1272;22650;-85
2023/09/22 00:47:40;;;;;;;7.30;3.90;;;;;;;16.35;100.00;97896.52;137471;1272;22389;-84
2023/09/22 00:50:41;;;;;;;17.10;4.80;;;;;;;16.30;100.00;97896.27;137395;1272;22200;-83
2023/09/22 00:53:43;;;;;;;5.90;4.00;;;;;;;16.26;100.00;97892.52;137296;1272;22549;-82
2023/09/22 00:56:44;;;;;;;5.60;4.20;;;;;;;16.22;100.00;97887.72;137591;1272;22218;-82
2023/09/22 00:59:45;;;;;;;7.10;4.60;;;;;;;16.18;100.00;97885.19;137446;1272;23281;-83
2023/09/22 01:02:46;;;;;;;6.00;4.50;;;;;;;16.15;100.00;97883.86;137574;1272;22699;-82
2023/09/22 01:05:48;;;;;;;9.30;4.40;;;;;;;16.14;100.00;97887.23;137608;1272;22265;-82
2023/09/22 01:08:49;;;;;;;7.50;4.40;;;;;;;16.12;100.00;97882.89;137275;1272;22163;-82
2023/09/22 01:11:51;;;;;;;5.10;4.50;;;;;;;16.10;100.00;97887.52;137390;1272;24337;-82
2023/09/22 01:14:52;;;;;;;7.50;4.50;;;;;;;16.08;100.00;97886.69;137707;1272;22365;-83
2023/09/22 01:17:54;;;;;;;5.30;4.30;;;;;;;16.05;100.00;97891.48;137398;1272;22396;-82
2023/09/22 01:20:57;;;;;;;8.90;4.50;;;;;;;16.03;100.00;97887.14;137269;1272;22962;-82
2023/09/22 01:23:59;;;;;;;7.00;4.20;;;;;;;16.02;100.00;97891.40;137651;1272;22061;-82
2023/09/22 01:27:01;;;;;;;7.30;4.80;;;;;;;15.99;100.00;97890.94;137291;1270;22363;-81
2023/09/22 01:30:05;;;;;;;5.90;4.40;;;;;;;15.97;100.00;97889.44;137187;1272;22525;-81
2023/09/22 01:33:06;;;;;;;13.20;4.70;;;;;;;15.95;100.00;97889.12;137411;1272;22528;-83
2023/09/22 01:36:07;;;;;;;6.10;4.10;;;;;;;15.93;100.00;97888.81;137575;1272;22361;-83
2023/09/22 01:39:11;;;;;;;4.90;4.20;;;;;;;15.92;100.00;97886.55;137320;1272;22192;-82
2023/09/22 01:42:12;;;;;;;5.60;4.30;;;;;;;15.91;100.00;97883.42;137268;1272;22556;-82
2023/09/22 01:45:13;;;;;;;5.20;4.70;;;;;;;15.89;100.00;97882.59;137701;1272;22138;-82
2023/09/22 01:48:16;;;;;;;11.10;4.80;;;;;;;15.88;100.00;97881.21;137451;1272;22692;-83
2023/09/22 01:51:17;;;;;;;8.70;4.50;;;;;;;15.86;100.00;97879.50;137425;1272;22173;-82
2023/09/22 01:54:19;;;;;;;8.50;5.00;;;;;;;15.85;100.00;97876.55;137738;1272;22640;-83
2023/09/22 01:57:20;;;;;;;8.30;4.80;;;;;;;15.84;100.00;97874.11;137437;1272;22198;-83
2023/09/22 02:00:21;;;;;;;139.20;14.90;;;;;;;15.84;100.00;97873.25;137255;1272;22558;-83
2023/09/22 02:03:22;;;;;;;8.40;4.20;;;;;;;15.82;100.00;97867.66;137660;1272;22558;-83
2023/09/22 02:06:23;;;;;;;5.00;4.40;;;;;;;15.81;100.00;97860.16;137486;1272;22217;-82
2023/09/22 02:09:24;;;;;;;7.30;4.40;;;;;;;15.80;100.00;97866.33;137305;1272;22292;-83
2023/09/22 02:12:25;;;;;;;8.40;4.60;;;;;;;15.79;100.00;97871.27;137210;1272;22658;-82
2023/09/22 02:15:26;;;;;;;14.60;5.20;;;;;;;15.79;100.00;97867.41;137757;1272;22460;-82
2023/09/22 02:18:28;;;;;;;7.40;4.30;;;;;;;15.79;100.00;97857.23;137461;1272;22301;-84
2023/09/22 02:21:29;;;;;;;5.10;4.50;;;;;;;15.80;100.00;97861.05;137402;1272;22627;-84
2023/09/22 02:24:30;;;;;;;32.60;6.20;;;;;;;15.83;100.00;97867.31;137684;1269;22564;-82
2023/09/22 02:27:31;;;;;;;8.00;4.60;;;;;;;15.85;100.00;97864.95;137271;1272;22421;-83
2023/09/22 02:30:34;;;;;;;7.50;4.80;;;;;;;15.88;100.00;97864.71;137305;1272;22516;-83
2023/09/22 02:33:36;;;;;;;5.60;4.10;;;;;;;15.90;100.00;97856.25;137658;1272;22423;-82
2023/09/22 02:36:37;;;;;;;9.40;4.30;;;;;;;15.93;100.00;97844.58;137382;1272;22197;-84
2023/09/22 02:39:38;;;;;;;7.40;4.50;;;;;;;15.97;100.00;97832.21;137594;1272;22239;-84
2023/09/22 02:42:40;;;;;;;28.70;6.60;;;;;;;16.01;100.00;97820.54;137553;1272;22477;-84
2023/09/22 02:45:41;;;;;;;6.80;4.20;;;;;;;16.04;100.00;97819.58;137627;1272;22439;-82
2023/09/22 02:48:42;;;;;;;22.70;5.90;;;;;;;16.11;100.00;97813.58;137469;1272;26336;-81
2023/09/22 02:51:43;;;;;;;10.40;4.50;;;;;;;16.62;100.00;97819.77;137369;1272;22196;-82
2023/09/22 02:54:46;;;;;;;23.10;5.50;;;;;;;16.80;100.00;97818.73;137339;1272;22485;-87
2023/09/22 02:57:47;;;;;;;10.60;4.40;;;;;;;17.32;100.00;97806.60;137203;1272;22563;-81
2023/09/22 03:00:48;;;;;;;5.50;4.00;;;;;;;17.19;100.00;97812.11;137285;1272;22538;-83
2023/09/22 03:03:50;;;;;;;6.20;4.40;;;;;;;16.99;100.00;97807.45;137755;1272;22234;-82
2023/09/22 03:06:52;;;;;;;8.70;4.50;;;;;;;16.85;100.00;97810.33;137553;1272;22265;-83
2023/09/22 03:09:53;;;;;;;6.80;4.60;;;;;;;16.74;100.00;97802.92;137396;1272;22584;-82
2023/09/22 03:12:54;;;;;;;8.50;4.50;;;;;;;16.68;100.00;97800.99;137580;1272;22276;-83
2023/09/22 03:15:56;;;;;;;7.50;4.50;;;;;;;16.62;100.00;97795.35;137413;1272;22181;-82
2023/09/22 03:18:57;;;;;;;6.50;4.30;;;;;;;16.57;100.00;97801.63;137430;1272;22203;-83
2023/09/22 03:21:59;;;;;;;12.50;5.10;;;;;;;16.53;100.00;97801.39;137714;1272;22232;-84
2023/09/22 03:25:00;;;;;;;7.50;4.70;;;;;;;16.50;100.00;97796.56;137392;1272;22326;-82
2023/09/22 03:28:01;;;;;;;8.10;4.60;;;;;;;16.48;100.00;97800.14;137463;1272;22334;-83
2023/09/22 03:31:03;;;;;;;10.80;4.70;;;;;;;16.47;100.00;97796.29;137629;1272;22150;-84
2023/09/22 03:34:05;;;;;;;11.60;5.10;;;;;;;16.44;100.00;97799.16;137303;1272;22265;-85
2023/09/22 03:37:09;;;;;;;6.00;4.80;;;;;;;16.44;100.00;97801.45;137305;1272;22238;-82
2023/09/22 03:40:13;;;;;;;6.50;4.70;;;;;;;16.42;100.00;97805.88;137446;1272;22534;-84
2023/09/22 03:43:14;;;;;;;13.80;4.90;;;;;;;16.41;100.00;97809.44;137768;1272;22233;-84
2023/09/22 03:46:15;;;;;;;24.50;5.40;;;;;;;16.42;100.00;97810.82;137436;1272;22423;-82
2023/09/22 03:49:16;;;;;;;10.50;5.20;;;;;;;16.45;100.00;97817.59;137656;1272;22188;-82
2023/09/22 03:52:17;;;;;;;5.30;4.60;;;;;;;16.43;100.00;97821.67;137653;1272;22273;-82
2023/09/22 03:55:19;;;;;;;6.80;5.10;;;;;;;16.40;100.00;97819.29;137703;1272;22248;-83
2023/09/22 03:58:20;;;;;;;9.40;4.90;;;;;;;16.39;100.00;97820.55;137691;1272;22228;-84
2023/09/22 04:01:23;;;;;;;5.70;4.60;;;;;;;16.38;100.00;97826.73;137644;1272;22255;-82
2023/09/22 04:04:24;;;;;;;23.00;6.50;;;;;;;16.35;100.00;97830.83;137732;1271;22313;-81
2023/09/22 04:07:25;;;;;;;11.00;5.00;;;;;;;16.33;100.00;97833.01;137679;1272;22278;-81
2023/09/22 04:10:26;;;;;;;7.80;5.10;;;;;;;16.30;100.00;97836.41;137660;1272;22859;-82
2023/09/22 04:13:27;;;;;;;21.60;7.30;;;;;;;16.36;100.00;97833.11;137678;1272;22292;-81
2023/09/22 04:16:29;;;;;;;30.20;7.10;;;;;;;17.20;100.00;97831.96;137683;1272;22265;-81
2023/09/22 04:19:33;;;;;;;27.00;9.80;;;;;;;17.96;100.00;97834.98;137675;1272;22425;-81
2023/09/22 04:22:34;;;;;;;45.70;11.40;;;;;;;18.60;100.00;97840.89;137693;1272;22328;-81
2023/09/22 04:25:37;;;;;;;28.50;6.80;;;;;;;18.94;100.00;97840.36;137642;1272;22983;-80
2023/09/22 04:28:38;;;;;;;29.80;6.80;;;;;;;19.12;100.00;97839.52;137700;1272;22184;-81
2023/09/22 04:31:39;;;;;;;15.40;6.10;;;;;;;19.29;100.00;97842.06;137664;1270;22368;-80
2023/09/22 04:34:41;;;;;;;24.60;8.00;;;;;;;19.39;100.00;97849.23;137669;1272;22286;-82
2023/09/22 04:37:42;;;;;;;23.80;6.40;;;;;;;19.50;100.00;97844.41;137638;1272;22164;-81
2023/09/22 04:40:44;;;;;;;8.20;4.80;;;;;;;19.64;100.00;97844.92;137645;1272;22219;-81
2023/09/22 04:43:45;;;;;;;13.40;5.40;;;;;;;19.57;100.00;97836.20;137674;1272;22658;-82
2023/09/22 04:46:46;;;;;;;16.80;5.00;;;;;;;19.57;100.00;97833.91;137682;1272;22459;-82
2023/09/22 04:49:48;;;;;;;23.40;5.60;;;;;;;19.57;100.00;97832.30;137713;1272;22392;-82
2023/09/22 04:52:49;;;;;;;51.30;8.70;;;;;;;19.63;100.00;97837.56;137582;1272;22231;-81
2023/09/22 04:55:50;;;;;;;29.80;6.50;;;;;;;19.54;100.00;97834.73;137714;1272;22232;-81
2023/09/22 04:58:53;;;;;;;29.70;7.30;;;;;;;19.62;100.00;97829.82;137715;1272;22395;-82
2023/09/22 05:01:56;;;;;;;31.80;6.60;;;;;;;19.84;100.00;97820.44;137502;1272;22447;-82
2023/09/22 05:04:57;;;;;;;62.40;12.10;;;;;;;19.92;100.00;97820.30;137731;1272;22299;-80
2023/09/22 05:07:59;;;;;;;33.00;7.90;;;;;;;19.92;100.00;97820.98;137502;1270;22541;-83
2023/09/22 05:11:00;;;;;;;25.90;7.20;;;;;;;20.03;100.00;97814.57;137610;1272;22425;-83
2023/09/22 05:14:02;;;;;;;19.50;6.40;;;;;;;20.19;100.00;97812.45;137688;1272;22142;-85
2023/09/22 05:17:04;;;;;;;11.10;5.40;;;;;;;20.26;100.00;97806.14;137676;1272;22172;-83
2023/09/22 05:20:15;;;;;;;12.10;5.20;;;;;;;19.75;100.00;97802.27;137681;1272;22251;-83
2023/09/22 05:23:17;;;;;;;40.00;7.60;;;;;;;19.24;100.00;97799.02;137626;1272;22160;-81
2023/09/22 05:26:20;;;;;;;8.00;4.90;;;;;;;18.91;100.00;97797.80;137597;1272;22346;-84
2023/09/22 05:29:21;;;;;;;11.10;5.90;;;;;;;18.70;100.00;97803.36;137663;1272;22172;-83
2023/09/22 05:32:23;;;;;;;24.40;6.10;;;;;;;18.54;100.00;97815.77;137655;1272;22235;-82
2023/09/22 05:35:24;;;;;;;24.20;6.50;;;;;;;18.43;100.00;97824.91;137668;1272;22343;-83
2023/09/22 05:38:25;;;;;;;18.60;6.00;;;;;;;18.42;100.00;97817.74;137701;1272;22279;-82
2023/09/22 05:41:26;;;;;;;12.30;5.20;;;;;;;18.44;100.00;97815.39;137562;1272;22267;-82
2023/09/22 05:44:29;;;;;;;19.20;5.50;;;;;;;18.56;100.00;97810.21;137669;1272;22246;-84
2023/09/22 05:47:30;;;;;;;10.60;5.20;;;;;;;18.74;100.00;97808.48;137623;1269;22115;-84
2023/09/22 05:50:31;;;;;;;7.50;5.30;;;;;;;18.92;100.00;97812.23;137696;1272;22385;-85
2023/09/22 05:53:34;;;;;;;9.00;5.60;;;;;;;19.10;100.00;97814.73;137576;1272;22241;-83
2023/09/22 05:56:35;;;;;;;12.20;5.70;;;;;;;19.21;100.00;97819.25;137595;1272;22549;-83
2023/09/22 05:59:37;;;;;;;13.90;5.90;;;;;;;19.19;100.00;97828.31;137665;1272;22384;-83
2023/09/22 06:02:38;;;;;;;65.90;8.60;;;;;;;19.23;100.00;97838.75;137631;1272;22157;-83
2023/09/22 06:05:39;;;;;;;42.50;8.20;;;;;;;19.28;100.00;97845.26;137625;1272;22585;-81
2023/09/22 06:08:41;;;;;;;80.50;9.50;;;;;;;19.33;100.00;97848.05;137667;1272;22312;-80
2023/09/22 06:11:42;;;;;;;36.50;7.10;;;;;;;19.50;100.00;97842.98;137696;1272;22306;-84
2023/09/22 06:14:43;;;;;;;9.50;6.30;;;;;;;19.67;100.00;97833.65;137506;1263;22426;-83
2023/09/22 06:17:48;;;;;;;14.30;5.60;;;;;;;19.73;100.00;97828.82;137628;1272;22201;-83
2023/09/22 06:20:49;;;;;;;12.20;5.60;;;;;;;19.80;100.00;97820.77;137562;1272;22254;-84
2023/09/22 06:23:51;;;;;;;13.70;6.10;;;;;;;19.89;100.00;97820.58;137592;1272;22184;-83
2023/09/22 06:26:52;;;;;;;12.80;5.80;;;;;;;19.94;100.00;97818.27;137605;1272;22281;-83
2023/09/22 06:29:53;;;;;;;10.00;5.50;;;;;;;19.88;100.00;97812.30;137612;1272;22427;-83
2023/09/22 06:32:55;;;;;;;6.80;5.20;;;;;;;19.91;100.00;97815.03;137728;1257;22291;-84
2023/09/22 06:35:58;;;;;;;49.00;7.30;;;;;;;19.99;100.00;97817.02;137568;1272;24324;-83
2023/09/22 06:39:03;;;;;;;8.20;5.30;;;;;;;20.07;100.00;97817.05;137627;1272;22293;-81
2023/09/22 06:42:05;;;;;;;7.90;6.10;;;;;;;20.12;100.00;97821.05;137627;1272;22572;-82
2023/09/22 06:45:06;;;;;;;11.60;5.60;;;;;;;20.24;100.00;97818.96;137735;1272;22213;-82
2023/09/22 06:48:07;;;;;;;17.80;6.00;;;;;;;20.30;100.00;97820.60;137748;1272;22707;-82
2023/09/22 06:51:10;;;;;;;12.70;6.20;;;;;;;20.46;100.00;97825.98;137700;1272;22461;-81
2023/09/22 06:54:11;;;;;;;17.80;6.40;;;;;;;20.56;100.00;97824.98;137683;1272;22209;-82
2023/09/22 06:57:15;;;;;;;13.70;5.70;;;;;;;20.65;100.00;97826.89;137738;1267;22597;-83
2023/09/22 07:00:18;;;;;;;34.10;7.90;;;;;;;20.78;100.00;97830.04;137587;1272;22256;-83
2023/09/22 07:03:19;;;;;;;9.50;5.60;;;;;;;20.84;100.00;97834.70;137718;1272;22190;-80
2023/09/22 07:06:20;;;;;;;9.20;5.90;;;;;;;20.86;100.00;97832.69;137716;1272;22198;-80
2023/09/22 07:09:22;;;;;;;11.90;6.00;;;;;;;20.79;100.00;97841.99;137703;1272;22252;-80
2023/09/22 07:12:23;;;;;;;10.10;5.90;;;;;;;20.91;100.00;97840.23;137683;1272;22235;-79
2023/09/22 07:15:24;;;;;;;15.10;6.00;;;;;;;21.09;100.00;97844.72;137687;1272;22469;-81
2023/09/22 07:18:26;;;;;;;28.20;7.40;;;;;;;21.23;100.00;97845.82;137684;1272;22361;-82
2023/09/22 07:21:27;;;;;;;13.10;6.30;;;;;;;21.37;100.00;97844.48;137672;1272;22375;-82
2023/09/22 07:24:28;;;;;;;56.70;9.70;;;;;;;21.50;100.00;97851.84;137706;1272;22345;-83
2023/09/22 07:27:29;;;;;;;150.20;17.20;;;;;;;21.62;100.00;97852.67;137678;1272;22539;-83
2023/09/22 07:30:31;;;;;;;20.30;7.50;;;;;;;21.77;100.00;97861.00;137676;1272;22242;-82
2023/09/22 07:33:32;;;;;;;12.10;6.30;;;;;;;21.92;100.00;97866.27;137539;1272;22251;-81
2023/09/22 07:36:33;;;;;;;10.10;7.00;;;;;;;22.05;100.00;97864.73;137697;1269;22219;-82
2023/09/22 07:39:34;;;;;;;18.40;6.80;;;;;;;22.16;100.00;97865.26;137547;1272;22693;-82
2023/09/22 07:42:39;;;;;;;8.80;6.30;;;;;;;22.29;100.00;97858.94;137580;1272;22231;-82
2023/09/22 07:45:40;;;;;;;102.00;12.10;;;;;;;22.49;100.00;97864.46;137682;1272;22566;-79
2023/09/22 07:48:42;;;;;;;19.60;6.70;;;;;;;22.70;100.00;97869.80;137737;1272;22298;-82
2023/09/22 07:51:43;;;;;;;26.40;6.60;;;;;;;22.86;100.00;97874.48;137499;1270;22237;-83
2023/09/22 07:54:47;;;;;;;37.10;27.70;;;;;;;22.92;100.00;97876.10;137695;1272;22264;-82
2023/09/22 07:57:49;;;;;;;12.30;7.10;;;;;;;23.03;100.00;97882.80;137709;1272;22210;-81
2023/09/22 08:00:52;;;;;;;12.60;6.80;;;;;;;23.16;100.00;97882.61;137722;1272;22244;-82
2023/09/22 08:03:53;;;;;;;15.70;6.80;;;;;;;23.23;100.00;97877.64;137730;1269;22294;-79
2023/09/22 08:06:54;;;;;;;31.30;7.70;;;;;;;23.26;100.00;97870.55;137677;1272;22197;-77
2023/09/22 08:10:05;;;;;;;110.80;13.50;;;;;;;23.36;100.00;97865.55;137793;1272;22311;-81
2023/09/22 08:13:08;;;;;;;14.40;7.20;;;;;;;23.48;100.00;97859.77;137749;1272;22231;-79
2023/09/22 08:16:10;;;;;;;17.00;6.90;;;;;;;23.69;100.00;97859.48;137746;1272;22220;-82
2023/09/22 08:19:11;;;;;;;14.50;6.90;;;;;;;23.86;100.00;97859.41;137782;1272;22356;-81
2023/09/22 08:22:12;;;;;;;16.80;7.10;;;;;;;23.90;100.00;97858.29;137809;1272;22310;-81
2023/09/22 08:25:14;;;;;;;203.20;21.70;;;;;;;23.93;100.00;97857.22;137840;1272;22383;-79
2023/09/22 08:28:15;;;;;;;851.40;85.40;;;;;;;24.03;100.00;97858.74;137832;1272;22800;-80
2023/09/22 08:31:16;;;;;;;16.80;7.50;;;;;;;24.19;100.00;97859.13;137824;1272;22239;-82
2023/09/22 08:34:17;;;;;;;72.10;10.20;;;;;;;24.25;100.00;97857.36;137759;1270;22499;-82
2023/09/22 08:37:18;;;;;;;23.60;7.30;;;;;;;24.40;100.00;97860.04;137653;1263;22246;-82
2023/09/22 08:40:19;;;;;;;16.90;6.50;;;;;;;24.47;100.00;97860.48;137580;1272;22346;-81
2023/09/22 08:43:26;;;;;;;14.40;6.50;;;;;;;24.51;100.00;97857.77;137647;1272;22220;-82
2023/09/22 08:46:27;;;;;;;11.40;6.50;;;;;;;24.68;100.00;97852.31;137717;1272;22187;-83
2023/09/22 08:49:29;;;;;;;20.40;8.00;;;;;;;24.89;100.00;97852.64;137666;1272;22314;-81
2023/09/22 08:52:30;;;;;;;12.00;6.70;;;;;;;25.08;100.00;97848.59;137682;1272;22267;-79
2023/09/22 08:55:32;;;;;;;13.40;6.50;;;;;;;25.23;100.00;97842.73;137658;1272;22761;-81
2023/09/22 08:58:34;;;;;;;30.00;7.70;;;;;;;25.20;100.00;97848.27;137666;1272;22266;-82
2023/09/22 09:01:35;;;;;;;40.40;14.70;;;;;;;25.19;100.00;97848.52;137697;1272;22434;-81
2023/09/22 09:04:39;;;;;;;74.00;11.80;;;;;;;25.17;100.00;97850.55;137665;1272;22232;-83
2023/09/22 09:07:40;;;;;;;23.10;7.70;;;;;;;25.16;100.00;97847.43;137651;1269;22231;-82
2023/09/22 09:10:42;;;;;;;94.10;12.20;;;;;;;25.19;100.00;97850.09;137690;1272;22282;-81
2023/09/22 09:13:44;;;;;;;51.90;8.80;;;;;;;25.22;100.00;97845.77;137703;1272;22218;-82
2023/09/22 09:16:45;;;;;;;14.80;5.90;;;;;;;25.21;100.00;97842.46;137697;1272;22225;-82
2023/09/22 09:19:46;;;;;;;16.40;6.10;;;;;;;25.46;100.00;97839.84;137584;1272;22244;-82
2023/09/22 09:22:48;;;;;;;17.40;5.80;;;;;;;25.69;78.82;97836.55;137728;1272;22716;-82
2023/09/22 09:25:49;;;;;;;9.40;5.70;;;;;;;26.01;64.09;97843.55;137692;1272;22227;-81
2023/09/22 09:28:51;;;;;;;9.90;5.70;;;;;;;26.37;63.29;97837.98;137691;1272;22216;-82
2023/09/22 09:31:52;;;;;;;10.40;6.00;;;;;;;26.57;62.33;97834.60;137670;1272;22269;-82
2023/09/22 09:34:53;;;;;;;12.40;6.70;;;;;;;26.66;61.32;97835.98;137662;1272;22338;-82
2023/09/22 09:37:54;;;;;;;13.20;6.30;;;;;;;26.59;61.57;97833.43;137647;1272;22239;-83
2023/09/22 09:40:56;;;;;;;14.20;6.00;;;;;;;26.68;62.11;97829.54;137666;1272;22331;-83
2023/09/22 09:43:58;;;;;;;14.30;7.10;;;;;;;26.93;61.88;97824.27;137385;1272;395196;-82
2023/09/22 09:47:00;;;;;;;15.90;5.60;;;;;;;27.28;60.91;97828.77;137672;1272;23075;-82
2023/09/22 09:50:04;;;;;;;17.20;5.80;;;;;;;27.58;59.08;97827.13;137620;1272;22467;-83
2023/09/22 09:53:06;;;;;;;27.20;7.20;;;;;;;27.60;58.28;97831.26;137693;1271;22379;-83
2023/09/22 09:56:10;;;;;;;34.30;7.40;;;;;;;27.73;57.81;97829.61;137723;1272;22311;-82
2023/09/22 09:59:13;;;;;;;29.60;7.40;;;;;;;27.77;57.18;97827.52;137664;1272;22791;-80
2023/09/22 10:02:14;;;;;;;76.90;11.20;;;;;;;27.67;56.74;97831.28;137656;1272;22231;-80
2023/09/22 10:05:15;;;;;;;27.00;14.30;;;;;;;27.58;57.10;97827.33;137683;1272;23045;-81
2023/09/22 10:08:17;;;;;;;9.20;5.70;;;;;;;27.53;56.62;97826.08;137705;1272;22306;-81
2023/09/22 10:11:18;;;;;;;24.70;6.20;;;;;;;27.39;56.75;97825.64;137692;1272;22148;-83
2023/09/22 10:14:19;;;;;;;21.50;5.90;;;;;;;27.44;54.96;97836.68;137611;1272;23222;-82
2023/09/22 10:17:21;;;;;;;12.80;4.80;;;;;;;27.44;54.38;97836.14;137670;1272;22470;-81
2023/09/22 10:20:24;;;;;;;20.30;5.50;;;;;;;27.31;54.27;97838.16;137715;1272;22191;-82
2023/09/22 10:23:27;;;;;;;11.60;5.20;;;;;;;27.29;54.52;97840.63;137693;1272;22122;-82
2023/09/22 10:26:28;;;;;;;24.80;6.90;;;;;;;27.32;54.17;97842.44;137673;1272;22218;-80
2023/09/22 10:29:30;;;;;;;37.30;6.50;;;;;;;27.24;54.81;97840.83;137671;1272;22203;-81
2023/09/22 10:32:31;;;;;;;51.20;7.10;;;;;;;27.18;55.53;97843.44;137715;1260;22223;-82
2023/09/22 10:35:32;;;;;;;22.40;5.90;;;;;;;27.13;55.57;97844.49;137730;1272;22392;-80
2023/09/22 10:38:33;;;;;;;88.50;11.90;;;;;;;27.03;55.63;97844.85;137726;1272;22669;-82
2023/09/22 10:41:35;;;;;;;43.20;8.30;;;;;;;26.92;54.51;97839.71;137724;1272;22333;-80
2023/09/22 10:44:36;;;;;;;20.10;5.30;;;;;;;26.82;54.79;97843.59;137723;1266;22438;-80
2023/09/22 10:47:37;;;;;;;18.50;4.70;;;;;;;26.89;54.79;97844.38;137721;1272;22746;-80
2023/09/22 10:50:38;;;;;;;9.80;4.40;;;;;;;27.10;54.91;97840.05;137702;1272;22361;-81
2023/09/22 10:53:39;;;;;;;11.70;4.70;;;;;;;27.14;54.59;97839.41;137722;1272;22225;-81
2023/09/22 10:56:41;;;;;;;19.50;11.10;;;;;;;27.19;54.92;97836.19;137697;1272;22885;-81
2023/09/22 10:59:42;;;;;;;6.50;4.30;;;;;;;27.23;54.61;97838.41;137755;1272;22365;-82
2023/09/22 11:02:43;;;;;;;48.60;6.50;;;;;;;27.16;54.48;97841.08;137744;1272;22149;-80
2023/09/22 11:05:46;;;;;;;26.10;6.00;;;;;;;27.18;54.80;97836.21;137674;1272;22826;-81
2023/09/22 11:08:48;;;;;;;28.70;6.80;;;;;;;27.37;54.68;97837.25;137737;1272;22254;-81
2023/09/22 11:11:49;;;;;;;14.60;5.30;;;;;;;27.55;54.66;97831.95;137654;1272;22244;-81
2023/09/22 11:14:50;;;;;;;24.20;5.20;;;;;;;27.60;54.02;97826.10;137725;1272;22353;-80
2023/09/22 11:17:51;;;;;;;11.90;4.30;;;;;;;27.53;53.82;97829.40;137743;1265;22201;-81
2023/09/22 11:20:52;;;;;;;86.40;8.10;;;;;;;27.69;53.90;97832.08;137651;1272;22393;-79
2023/09/22 11:23:54;;;;;;;19.80;5.00;;;;;;;28.10;52.78;97827.90;137693;1272;22724;-81
2023/09/22 11:26:55;;;;;;;57.90;7.60;;;;;;;28.18;51.78;97824.66;137708;1272;22285;-81
2023/09/22 11:29:57;;;;;;;20.10;5.00;;;;;;;28.03;51.94;97827.58;137629;1272;22358;-82
2023/09/22 11:32:58;;;;;;;12.10;4.90;;;;;;;27.81;52.11;97834.54;137679;1272;22807;-81
2023/09/22 11:35:59;;;;;;;173.30;21.20;;;;;;;27.63;52.17;97834.80;137662;1272;22263;-79
2023/09/22 11:39:04;;;;;;;67.80;8.40;;;;;;;27.51;52.51;97830.47;137672;1272;22249;-82
2023/09/22 11:42:05;;;;;;;17.80;5.60;;;;;;;27.47;53.00;97825.60;137681;1272;22223;-80
2023/09/22 11:45:06;;;;;;;19.80;4.50;;;;;;;27.47;53.13;97821.48;137708;1272;22667;-80
2023/09/22 11:48:07;;;;;;;7.80;3.60;;;;;;;27.62;53.10;97820.08;137712;1268;22255;-82
2023/09/22 11:51:08;;;;;;;9.80;4.10;;;;;;;27.74;52.46;97821.65;137679;1272;22232;-81
2023/09/22 11:54:10;;;;;;;9.60;4.20;;;;;;;28.09;51.89;97812.80;137676;1272;22225;-82
2023/09/22 11:57:11;;;;;;;10.00;4.40;;;;;;;28.43;52.02;97819.19;137674;1272;22252;-81
2023/09/22 12:00:14;;;;;;;12.60;4.50;;;;;;;28.44;51.57;97827.17;137706;1257;22237;-81
2023/09/22 12:03:16;;;;;;;11.30;4.40;;;;;;;28.46;51.44;97828.23;137513;1272;22411;-82
2023/09/22 12:06:18;;;;;;;24.80;7.10;;;;;;;28.46;51.69;97827.17;137703;1272;22808;-80
2023/09/22 12:09:19;;;;;;;13.60;4.70;;;;;;;28.67;51.10;97822.91;137759;1272;22713;-81
2023/09/22 12:12:20;;;;;;;6.80;4.00;;;;;;;28.69;51.48;97824.92;137525;1272;22255;-81
2023/09/22 12:15:22;;;;;;;117.80;12.60;;;;;;;28.44;51.36;97825.36;137696;1272;22944;-79
2023/09/22 12:18:23;;;;;;;26.70;5.60;;;;;;;28.26;52.06;97827.13;137474;1272;22767;-81
2023/09/22 12:21:24;;;;;;;59.00;8.30;;;;;;;28.11;51.66;97827.52;137708;1272;22221;-80
2023/09/22 12:24:25;;;;;;;15.90;3.80;;;;;;;28.09;51.42;97829.27;137670;1272;22385;-80
2023/09/22 12:27:26;;;;;;;29.50;5.10;;;;;;;28.09;51.50;97822.80;137662;1272;22976;-80
2023/09/22 12:30:28;;;;;;;88.80;8.60;;;;;;;28.29;49.83;97824.21;137646;1272;22190;-80
2023/09/22 12:33:29;;;;;;;27.60;3.60;;;;;;;28.60;48.64;97827.58;137615;1267;22337;-80
2023/09/22 12:36:30;;;;;;;27.20;4.10;;;;;;;28.78;47.91;97828.11;137637;1272;22322;-80
2023/09/22 12:39:32;;;;;;;6.90;2.60;;;;;;;28.79;47.28;97831.23;137663;1272;22308;-80
2023/09/22 12:42:37;;;;;;;;;;;;;;;28.72;47.09;97834.48;137690;1272;22790;-81
2023/09/22 12:45:39;;;;;;;24.50;3.30;;;;;;;28.57;47.65;97827.41;137703;1272;22655;-80
2023/09/22 12:48:40;;;;;;;9.40;3.40;;;;;;;28.52;48.10;97821.30;137691;1272;22315;-80
2023/09/22 12:51:41;;;;;;;8.90;2.90;;;;;;;28.44;47.79;97827.88;137721;1272;22318;-80
2023/09/22 12:54:42;;;;;;;10.80;3.50;;;;;;;28.31;48.14;97822.77;137670;1272;22311;-80
2023/09/22 12:57:44;;;;;;;84.70;7.80;;;;;;;28.29;48.61;97819.71;137679;1272;22475;-80
2023/09/22 13:00:46;;;;;;;10.80;2.80;;;;;;;28.49;48.81;97821.42;137693;1272;22181;-80
2023/09/22 13:03:53;;;;;;;6.40;3.10;;;;;;;28.76;48.91;97819.86;137775;1272;22311;-80
2023/09/22 13:06:54;;;;;;;16.70;3.60;;;;;;;28.83;48.50;97818.59;137746;1272;22630;-78
2023/09/22 13:09:55;;;;;;;20.50;5.40;;;;;;;28.61;48.15;97825.30;137689;1272;22506;-79
2023/09/22 13:12:56;;;;;;;6.90;3.10;;;;;;;28.53;47.90;97824.54;137703;1272;22209;-79
2023/09/22 13:15:57;;;;;;;33.10;5.10;;;;;;;28.58;47.88;97827.16;137694;1268;22291;-80
2023/09/22 13:18:59;;;;;;;23.50;3.10;;;;;;;28.62;47.74;97830.95;137698;1272;22200;-79
2023/09/22 13:22:00;;;;;;;14.30;3.30;;;;;;;28.71;47.23;97827.63;137655;1272;22233;-79
2023/09/22 13:25:01;;;;;;;22.90;3.60;;;;;;;28.63;47.22;97823.92;137643;1272;22321;-79
2023/09/22 13:28:04;;;;;;;11.70;3.20;;;;;;;28.53;47.18;97819.98;137693;1272;22262;-80
2023/09/22 13:31:05;;;;;;;26.50;5.00;;;;;;;28.53;48.97;97820.20;137681;1266;22219;-79
2023/09/22 13:34:06;;;;;;;15.80;3.80;;;;;;;28.12;49.88;97817.78;137712;1272;22122;-79
2023/09/22 13:37:08;;;;;;;24.80;3.50;;;;;;;27.82;49.52;97827.73;137683;1272;22193;-79
2023/09/22 13:40:11;;;;;;;66.50;6.50;;;;;;;27.62;49.92;97828.59;137683;1272;22838;-80
2023/09/22 13:43:12;;;;;;;12.00;3.90;;;;;;;27.51;50.73;97821.35;137686;1272;22395;-81
2023/09/22 13:46:13;;;;;;;42.90;5.30;;;;;;;27.39;51.05;97822.09;137753;1272;22323;-81
2023/09/22 13:49:14;;;;;;;41.40;5.40;;;;;;;27.34;52.22;97826.23;137781;1272;22762;-81
2023/09/22 13:52:18;;;;;;;35.40;5.40;;;;;;;27.33;52.53;97825.17;137795;1272;22218;-81